Terminal Aerodrome Forecast
Issued by NWS

Home | Current Version | Previous Version | Text Only | Print | Product List | Glossary On
Versions: 1 2 3 4 5 6 7 8 9 10 11 12 13 14
000
FTUS42 TJSJ 261730
TAFISX
TAF
TISX 261730Z 2618/2718 11013G18KT P6SM VCSH FEW025 SCT045
     FM262300 07009KT P6SM FEW025
     FM271300 11015G20KT P6SM SCT030=

USA.gov is the U.S. government's official web portal to all federal, state and local government web resources and services.